sensor_id;sensor_type;location;lat;lon;timestamp;temperature;humidity
29663;DHT22;16578;53.266;7.920;2024-02-26T00:01:41;7.70;82.60
29663;DHT22;16578;53.266;7.920;2024-02-26T00:04:09;7.60;82.50
29663;DHT22;16578;53.266;7.920;2024-02-26T00:06:35;7.60;82.70
29663;DHT22;16578;53.266;7.920;2024-02-26T00:09:00;7.60;82.80
29663;DHT22;16578;53.266;7.920;2024-02-26T00:11:28;7.70;83.00
29663;DHT22;16578;53.266;7.920;2024-02-26T00:13:53;7.70;83.00
29663;DHT22;16578;53.266;7.920;2024-02-26T00:16:19;7.70;83.90
29663;DHT22;16578;53.266;7.920;2024-02-26T00:18:44;7.70;83.10
29663;DHT22;16578;53.266;7.920;2024-02-26T00:21:10;7.70;83.00
29663;DHT22;16578;53.266;7.920;2024-02-26T00:23:35;7.70;83.00
29663;DHT22;16578;53.266;7.920;2024-02-26T00:26:01;7.70;82.90
29663;DHT22;16578;53.266;7.920;2024-02-26T00:28:27;7.70;82.90
29663;DHT22;16578;53.266;7.920;2024-02-26T00:30:54;7.70;83.10
29663;DHT22;16578;53.266;7.920;2024-02-26T00:33:22;7.70;83.00
29663;DHT22;16578;53.266;7.920;2024-02-26T00:35:48;7.70;83.00
29663;DHT22;16578;53.266;7.920;2024-02-26T00:38:14;7.70;82.90
29663;DHT22;16578;53.266;7.920;2024-02-26T00:40:39;7.70;82.90
29663;DHT22;16578;53.266;7.920;2024-02-26T00:43:06;7.70;82.80
29663;DHT22;16578;53.266;7.920;2024-02-26T00:45:32;7.70;82.80
29663;DHT22;16578;53.266;7.920;2024-02-26T00:47:58;7.60;82.70
29663;DHT22;16578;53.266;7.920;2024-02-26T00:50:26;7.60;82.80
29663;DHT22;16578;53.266;7.920;2024-02-26T00:52:52;7.50;83.10
29663;DHT22;16578;53.266;7.920;2024-02-26T00:55:17;7.60;82.80
29663;DHT22;16578;53.266;7.920;2024-02-26T00:57:43;7.60;82.90
29663;DHT22;16578;53.266;7.920;2024-02-26T01:00:09;7.60;83.00
29663;DHT22;16578;53.266;7.920;2024-02-26T01:02:35;7.60;83.10
29663;DHT22;16578;53.266;7.920;2024-02-26T01:05:01;7.60;83.10
29663;DHT22;16578;53.266;7.920;2024-02-26T01:07:28;7.50;83.10
29663;DHT22;16578;53.266;7.920;2024-02-26T01:09:53;7.60;83.20
29663;DHT22;16578;53.266;7.920;2024-02-26T01:12:19;7.50;83.10
29663;DHT22;16578;53.266;7.920;2024-02-26T01:14:44;7.50;83.10
29663;DHT22;16578;53.266;7.920;2024-02-26T01:17:10;7.50;83.20
29663;DHT22;16578;53.266;7.920;2024-02-26T01:19:36;7.50;83.20
29663;DHT22;16578;53.266;7.920;2024-02-26T01:22:01;7.50;83.20
29663;DHT22;16578;53.266;7.920;2024-02-26T01:24:29;7.50;83.20
29663;DHT22;16578;53.266;7.920;2024-02-26T01:26:54;7.50;83.30
29663;DHT22;16578;53.266;7.920;2024-02-26T01:29:20;7.50;83.20
29663;DHT22;16578;53.266;7.920;2024-02-26T01:31:45;7.50;83.20
29663;DHT22;16578;53.266;7.920;2024-02-26T01:34:11;7.50;83.30
29663;DHT22;16578;53.266;7.920;2024-02-26T01:36:36;7.50;83.40
29663;DHT22;16578;53.266;7.920;2024-02-26T01:39:02;7.40;83.50
29663;DHT22;16578;53.266;7.920;2024-02-26T01:41:28;7.40;83.50
29663;DHT22;16578;53.266;7.920;2024-02-26T01:43:54;7.40;83.40
29663;DHT22;16578;53.266;7.920;2024-02-26T01:46:20;7.50;83.50
29663;DHT22;16578;53.266;7.920;2024-02-26T01:48:46;7.40;83.50
29663;DHT22;16578;53.266;7.920;2024-02-26T01:51:14;7.40;83.50
29663;DHT22;16578;53.266;7.920;2024-02-26T01:53:41;7.40;83.50
29663;DHT22;16578;53.266;7.920;2024-02-26T01:56:07;7.40;83.50
29663;DHT22;16578;53.266;7.920;2024-02-26T01:58:34;7.40;83.50
29663;DHT22;16578;53.266;7.920;2024-02-26T02:01:01;7.40;83.70
29663;DHT22;16578;53.266;7.920;2024-02-26T02:03:28;7.40;83.90
29663;DHT22;16578;53.266;7.920;2024-02-26T02:05:54;7.40;84.00
29663;DHT22;16578;53.266;7.920;2024-02-26T02:08:19;7.40;84.00
29663;DHT22;16578;53.266;7.920;2024-02-26T02:10:45;7.40;84.20
29663;DHT22;16578;53.266;7.920;2024-02-26T02:13:13;7.50;84.50
29663;DHT22;16578;53.266;7.920;2024-02-26T02:15:39;7.50;84.60
29663;DHT22;16578;53.266;7.920;2024-02-26T02:18:05;7.50;84.60
29663;DHT22;16578;53.266;7.920;2024-02-26T02:20:34;7.50;84.70
29663;DHT22;16578;53.266;7.920;2024-02-26T02:23:00;7.60;84.80
29663;DHT22;16578;53.266;7.920;2024-02-26T02:25:26;7.60;84.80
29663;DHT22;16578;53.266;7.920;2024-02-26T02:27:53;7.70;84.90
29663;DHT22;16578;53.266;7.920;2024-02-26T02:30:20;7.70;85.90
29663;DHT22;16578;53.266;7.920;2024-02-26T02:32:46;7.70;84.90
29663;DHT22;16578;53.266;7.920;2024-02-26T02:35:12;7.80;84.90
29663;DHT22;16578;53.266;7.920;2024-02-26T02:37:38;7.80;84.90
29663;DHT22;16578;53.266;7.920;2024-02-26T02:40:04;7.80;84.80
29663;DHT22;16578;53.266;7.920;2024-02-26T02:42:30;7.80;84.70
29663;DHT22;16578;53.266;7.920;2024-02-26T02:44:56;7.80;84.60
29663;DHT22;16578;53.266;7.920;2024-02-26T02:47:21;7.80;84.50
29663;DHT22;16578;53.266;7.920;2024-02-26T02:49:47;7.80;85.30
29663;DHT22;16578;53.266;7.920;2024-02-26T02:52:13;7.80;84.30
29663;DHT22;16578;53.266;7.920;2024-02-26T02:54:38;7.80;84.40
29663;DHT22;16578;53.266;7.920;2024-02-26T02:57:07;7.80;84.30
29663;DHT22;16578;53.266;7.920;2024-02-26T02:59:32;7.70;84.30
29663;DHT22;16578;53.266;7.920;2024-02-26T03:01:58;7.70;84.30
29663;DHT22;16578;53.266;7.920;2024-02-26T03:04:23;7.70;84.30
29663;DHT22;16578;53.266;7.920;2024-02-26T03:06:49;7.70;84.30
29663;DHT22;16578;53.266;7.920;2024-02-26T03:09:14;7.70;84.20
29663;DHT22;16578;53.266;7.920;2024-02-26T03:11:40;7.70;84.20
29663;DHT22;16578;53.266;7.920;2024-02-26T03:14:06;7.70;85.10
29663;DHT22;16578;53.266;7.920;2024-02-26T03:16:31;7.60;84.20
29663;DHT22;16578;53.266;7.920;2024-02-26T03:18:57;7.60;84.30
29663;DHT22;16578;53.266;7.920;2024-02-26T03:21:23;7.60;84.20
29663;DHT22;16578;53.266;7.920;2024-02-26T03:23:49;7.60;84.30
29663;DHT22;16578;53.266;7.920;2024-02-26T03:26:15;7.50;84.20
29663;DHT22;16578;53.266;7.920;2024-02-26T03:28:41;7.50;84.30
29663;DHT22;16578;53.266;7.920;2024-02-26T03:31:06;7.50;84.20
29663;DHT22;16578;53.266;7.920;2024-02-26T03:33:32;7.50;84.10
29663;DHT22;16578;53.266;7.920;2024-02-26T03:35:57;7.50;84.10
29663;DHT22;16578;53.266;7.920;2024-02-26T03:38:23;7.40;84.10
29663;DHT22;16578;53.266;7.920;2024-02-26T03:40:49;7.40;84.20
29663;DHT22;16578;53.266;7.920;2024-02-26T03:43:14;7.40;84.20
29663;DHT22;16578;53.266;7.920;2024-02-26T03:45:40;7.40;84.20
29663;DHT22;16578;53.266;7.920;2024-02-26T03:48:06;7.40;84.20
29663;DHT22;16578;53.266;7.920;2024-02-26T03:50:31;7.40;84.20
29663;DHT22;16578;53.266;7.920;2024-02-26T03:52:57;7.40;84.30
29663;DHT22;16578;53.266;7.920;2024-02-26T03:55:23;7.40;84.20
29663;DHT22;16578;53.266;7.920;2024-02-26T03:57:51;7.30;84.10
29663;DHT22;16578;53.266;7.920;2024-02-26T04:00:17;7.30;84.10
29663;DHT22;16578;53.266;7.920;2024-02-26T04:02:43;7.30;84.10
29663;DHT22;16578;53.266;7.920;2024-02-26T04:05:12;7.30;84.20
29663;DHT22;16578;53.266;7.920;2024-02-26T04:07:39;7.30;84.20
29663;DHT22;16578;53.266;7.920;2024-02-26T04:10:09;7.30;84.30
29663;DHT22;16578;53.266;7.920;2024-02-26T04:12:35;7.30;84.30
29663;DHT22;16578;53.266;7.920;2024-02-26T04:15:00;7.30;84.30
29663;DHT22;16578;53.266;7.920;2024-02-26T04:17:26;7.30;84.30
29663;DHT22;16578;53.266;7.920;2024-02-26T04:19:51;7.20;84.30
29663;DHT22;16578;53.266;7.920;2024-02-26T04:22:17;7.20;84.30
29663;DHT22;16578;53.266;7.920;2024-02-26T04:24:43;7.20;84.30
29663;DHT22;16578;53.266;7.920;2024-02-26T04:27:08;7.20;84.30
29663;DHT22;16578;53.266;7.920;2024-02-26T04:29:34;7.20;84.30
29663;DHT22;16578;53.266;7.920;2024-02-26T04:31:59;7.20;84.30
29663;DHT22;16578;53.266;7.920;2024-02-26T04:34:25;7.20;84.40
29663;DHT22;16578;53.266;7.920;2024-02-26T04:36:50;7.20;84.50
29663;DHT22;16578;53.266;7.920;2024-02-26T04:39:16;7.20;84.40
29663;DHT22;16578;53.266;7.920;2024-02-26T04:41:42;7.20;84.50
29663;DHT22;16578;53.266;7.920;2024-02-26T04:44:07;7.20;84.50
29663;DHT22;16578;53.266;7.920;2024-02-26T04:46:33;7.20;84.50
29663;DHT22;16578;53.266;7.920;2024-02-26T04:48:59;7.20;84.50
29663;DHT22;16578;53.266;7.920;2024-02-26T04:51:24;7.30;84.70
29663;DHT22;16578;53.266;7.920;2024-02-26T04:53:50;7.20;84.60
29663;DHT22;16578;53.266;7.920;2024-02-26T04:56:15;7.30;84.70
29663;DHT22;16578;53.266;7.920;2024-02-26T04:58:41;7.20;84.60
29663;DHT22;16578;53.266;7.920;2024-02-26T05:01:06;7.20;84.50
29663;DHT22;16578;53.266;7.920;2024-02-26T05:03:32;7.30;84.60
29663;DHT22;16578;53.266;7.920;2024-02-26T05:05:58;7.30;85.40
29663;DHT22;16578;53.266;7.920;2024-02-26T05:08:23;7.20;84.60
29663;DHT22;16578;53.266;7.920;2024-02-26T05:10:49;7.30;85.50
29663;DHT22;16578;53.266;7.920;2024-02-26T05:13:15;7.20;84.70
29663;DHT22;16578;53.266;7.920;2024-02-26T05:15:43;7.30;84.70
29663;DHT22;16578;53.266;7.920;2024-02-26T05:18:09;7.20;84.60
29663;DHT22;16578;53.266;7.920;2024-02-26T05:20:34;7.30;84.70
29663;DHT22;16578;53.266;7.920;2024-02-26T05:23:03;7.30;84.70
29663;DHT22;16578;53.266;7.920;2024-02-26T05:25:29;7.30;84.70
29663;DHT22;16578;53.266;7.920;2024-02-26T05:27:55;7.30;84.80
29663;DHT22;16578;53.266;7.920;2024-02-26T05:30:21;7.30;84.80
29663;DHT22;16578;53.266;7.920;2024-02-26T05:32:46;7.30;84.80
29663;DHT22;16578;53.266;7.920;2024-02-26T05:35:12;7.30;84.80
29663;DHT22;16578;53.266;7.920;2024-02-26T05:37:38;7.30;84.70
29663;DHT22;16578;53.266;7.920;2024-02-26T05:40:04;7.30;84.70
29663;DHT22;16578;53.266;7.920;2024-02-26T05:42:31;7.30;84.70
29663;DHT22;16578;53.266;7.920;2024-02-26T05:44:57;7.30;84.70
29663;DHT22;16578;53.266;7.920;2024-02-26T05:47:23;7.30;85.60
29663;DHT22;16578;53.266;7.920;2024-02-26T05:49:48;7.30;84.90
29663;DHT22;16578;53.266;7.920;2024-02-26T05:52:14;7.30;84.70
29663;DHT22;16578;53.266;7.920;2024-02-26T05:54:40;7.30;84.80
29663;DHT22;16578;53.266;7.920;2024-02-26T05:57:05;7.30;84.70
29663;DHT22;16578;53.266;7.920;2024-02-26T05:59:31;7.30;84.70
29663;DHT22;16578;53.266;7.920;2024-02-26T06:01:56;7.30;84.70
29663;DHT22;16578;53.266;7.920;2024-02-26T06:04:22;7.30;84.70
29663;DHT22;16578;53.266;7.920;2024-02-26T06:06:47;7.30;84.60
29663;DHT22;16578;53.266;7.920;2024-02-26T06:09:13;7.30;84.60
29663;DHT22;16578;53.266;7.920;2024-02-26T06:11:39;7.30;84.70
29663;DHT22;16578;53.266;7.920;2024-02-26T06:14:04;7.30;84.70
29663;DHT22;16578;53.266;7.920;2024-02-26T06:16:30;7.20;84.60
29663;DHT22;16578;53.266;7.920;2024-02-26T06:18:56;7.30;84.70
29663;DHT22;16578;53.266;7.920;2024-02-26T06:21:22;7.30;84.70
29663;DHT22;16578;53.266;7.920;2024-02-26T06:23:47;7.20;84.60
29663;DHT22;16578;53.266;7.920;2024-02-26T06:26:13;7.30;84.60
29663;DHT22;16578;53.266;7.920;2024-02-26T06:28:39;7.30;84.60
29663;DHT22;16578;53.266;7.920;2024-02-26T06:31:06;7.30;84.60
29663;DHT22;16578;53.266;7.920;2024-02-26T06:33:32;7.20;84.50
29663;DHT22;16578;53.266;7.920;2024-02-26T06:35:58;7.30;85.50
29663;DHT22;16578;53.266;7.920;2024-02-26T06:38:24;7.20;84.60
29663;DHT22;16578;53.266;7.920;2024-02-26T06:40:50;7.20;84.60
29663;DHT22;16578;53.266;7.920;2024-02-26T06:43:15;7.20;84.60
29663;DHT22;16578;53.266;7.920;2024-02-26T06:45:41;7.30;84.60
29663;DHT22;16578;53.266;7.920;2024-02-26T06:48:07;7.20;84.40
29663;DHT22;16578;53.266;7.920;2024-02-26T06:50:32;7.30;84.50
29663;DHT22;16578;53.266;7.920;2024-02-26T06:52:58;7.20;84.50
29663;DHT22;16578;53.266;7.920;2024-02-26T06:55:24;7.20;84.50
29663;DHT22;16578;53.266;7.920;2024-02-26T06:57:49;7.20;85.40
29663;DHT22;16578;53.266;7.920;2024-02-26T07:00:15;7.30;84.50
29663;DHT22;16578;53.266;7.920;2024-02-26T07:02:42;7.20;84.40
29663;DHT22;16578;53.266;7.920;2024-02-26T07:05:08;7.30;84.50
29663;DHT22;16578;53.266;7.920;2024-02-26T07:07:34;7.30;84.50
29663;DHT22;16578;53.266;7.920;2024-02-26T07:10:00;7.30;84.50
29663;DHT22;16578;53.266;7.920;2024-02-26T07:12:29;7.30;84.50
29663;DHT22;16578;53.266;7.920;2024-02-26T07:14:55;7.30;84.50
29663;DHT22;16578;53.266;7.920;2024-02-26T07:17:20;7.30;84.50
29663;DHT22;16578;53.266;7.920;2024-02-26T07:19:46;7.30;84.50
29663;DHT22;16578;53.266;7.920;2024-02-26T07:22:12;7.30;84.40
29663;DHT22;16578;53.266;7.920;2024-02-26T07:24:37;7.30;84.40
29663;DHT22;16578;53.266;7.920;2024-02-26T07:27:03;7.30;84.40
29663;DHT22;16578;53.266;7.920;2024-02-26T07:29:29;7.30;84.40
29663;DHT22;16578;53.266;7.920;2024-02-26T07:31:55;7.30;84.30
29663;DHT22;16578;53.266;7.920;2024-02-26T07:34:21;7.30;84.30
29663;DHT22;16578;53.266;7.920;2024-02-26T07:36:53;7.30;84.30
29663;DHT22;16578;53.266;7.920;2024-02-26T07:39:19;7.30;84.30
29663;DHT22;16578;53.266;7.920;2024-02-26T07:41:44;7.30;84.30
29663;DHT22;16578;53.266;7.920;2024-02-26T07:44:12;7.30;84.30
29663;DHT22;16578;53.266;7.920;2024-02-26T07:46:37;7.30;84.30
29663;DHT22;16578;53.266;7.920;2024-02-26T07:49:03;7.30;84.30
29663;DHT22;16578;53.266;7.920;2024-02-26T07:51:29;7.40;84.40
29663;DHT22;16578;53.266;7.920;2024-02-26T07:53:54;7.40;84.40
29663;DHT22;16578;53.266;7.920;2024-02-26T07:56:20;7.40;84.30
29663;DHT22;16578;53.266;7.920;2024-02-26T07:58:45;7.40;84.30
29663;DHT22;16578;53.266;7.920;2024-02-26T08:01:13;7.40;84.20
29663;DHT22;16578;53.266;7.920;2024-02-26T08:03:39;7.40;84.20
29663;DHT22;16578;53.266;7.920;2024-02-26T08:06:05;7.40;84.20
29663;DHT22;16578;53.266;7.920;2024-02-26T08:08:31;7.40;84.20
29663;DHT22;16578;53.266;7.920;2024-02-26T08:10:56;7.40;84.20
29663;DHT22;16578;53.266;7.920;2024-02-26T08:13:22;7.40;84.20
29663;DHT22;16578;53.266;7.920;2024-02-26T08:15:48;7.50;84.30
29663;DHT22;16578;53.266;7.920;2024-02-26T08:18:14;7.50;84.30
29663;DHT22;16578;53.266;7.920;2024-02-26T08:20:43;7.50;84.20
29663;DHT22;16578;53.266;7.920;2024-02-26T08:23:11;7.50;84.20
29663;DHT22;16578;53.266;7.920;2024-02-26T08:25:37;7.50;84.20
29663;DHT22;16578;53.266;7.920;2024-02-26T08:28:05;7.50;84.10
29663;DHT22;16578;53.266;7.920;2024-02-26T08:30:31;7.60;84.10
29663;DHT22;16578;53.266;7.920;2024-02-26T08:32:59;7.60;84.00
29663;DHT22;16578;53.266;7.920;2024-02-26T08:35:28;7.60;84.00
29663;DHT22;16578;53.266;7.920;2024-02-26T08:37:56;7.60;83.90
29663;DHT22;16578;53.266;7.920;2024-02-26T08:40:22;7.60;83.90
29663;DHT22;16578;53.266;7.920;2024-02-26T08:42:50;7.70;84.00
29663;DHT22;16578;53.266;7.920;2024-02-26T08:45:19;7.70;83.90
29663;DHT22;16578;53.266;7.920;2024-02-26T08:47:47;7.70;83.90
29663;DHT22;16578;53.266;7.920;2024-02-26T08:50:16;7.70;83.90
29663;DHT22;16578;53.266;7.920;2024-02-26T08:52:48;7.80;83.80
29663;DHT22;16578;53.266;7.920;2024-02-26T08:55:16;7.80;83.70
29663;DHT22;16578;53.266;7.920;2024-02-26T08:57:42;7.80;83.60
29663;DHT22;16578;53.266;7.920;2024-02-26T09:00:08;7.80;83.60
29663;DHT22;16578;53.266;7.920;2024-02-26T09:02:36;7.80;83.50
29663;DHT22;16578;53.266;7.920;2024-02-26T09:05:05;7.80;83.50
29663;DHT22;16578;53.266;7.920;2024-02-26T09:07:31;7.90;83.60
29663;DHT22;16578;53.266;7.920;2024-02-26T09:10:02;7.90;83.60
29663;DHT22;16578;53.266;7.920;2024-02-26T09:12:28;7.90;83.50
29663;DHT22;16578;53.266;7.920;2024-02-26T09:14:59;7.90;83.50
29663;DHT22;16578;53.266;7.920;2024-02-26T09:17:27;8.00;83.50
29663;DHT22;16578;53.266;7.920;2024-02-26T09:19:53;8.00;83.40
29663;DHT22;16578;53.266;7.920;2024-02-26T09:22:18;8.00;83.30
29663;DHT22;16578;53.266;7.920;2024-02-26T09:24:44;8.00;83.20
29663;DHT22;16578;53.266;7.920;2024-02-26T09:27:15;8.00;83.10
29663;DHT22;16578;53.266;7.920;2024-02-26T09:29:43;8.10;83.20
29663;DHT22;16578;53.266;7.920;2024-02-26T09:32:09;8.10;83.20
29663;DHT22;16578;53.266;7.920;2024-02-26T09:34:34;8.10;83.10
29663;DHT22;16578;53.266;7.920;2024-02-26T09:37:00;8.10;83.10
29663;DHT22;16578;53.266;7.920;2024-02-26T09:39:26;8.20;83.10
29663;DHT22;16578;53.266;7.920;2024-02-26T09:41:53;8.20;82.90
29663;DHT22;16578;53.266;7.920;2024-02-26T09:44:19;8.20;82.80
29663;DHT22;16578;53.266;7.920;2024-02-26T09:46:48;8.20;82.70
29663;DHT22;16578;53.266;7.920;2024-02-26T09:49:18;8.30;82.80
29663;DHT22;16578;53.266;7.920;2024-02-26T09:51:45;8.30;82.80
29663;DHT22;16578;53.266;7.920;2024-02-26T09:54:12;8.30;82.70
29663;DHT22;16578;53.266;7.920;2024-02-26T09:56:39;8.40;82.60
29663;DHT22;16578;53.266;7.920;2024-02-26T09:59:10;8.40;82.50
29663;DHT22;16578;53.266;7.920;2024-02-26T10:01:42;8.40;82.50
29663;DHT22;16578;53.266;7.920;2024-02-26T10:04:08;8.40;82.30
29663;DHT22;16578;53.266;7.920;2024-02-26T10:06:36;8.40;82.40
29663;DHT22;16578;53.266;7.920;2024-02-26T10:09:06;8.50;82.30
29663;DHT22;16578;53.266;7.920;2024-02-26T10:11:35;8.50;82.20
29663;DHT22;16578;53.266;7.920;2024-02-26T10:14:02;8.50;82.20
29663;DHT22;16578;53.266;7.920;2024-02-26T10:16:28;8.50;82.30
29663;DHT22;16578;53.266;7.920;2024-02-26T10:18:54;8.50;82.30
29663;DHT22;16578;53.266;7.920;2024-02-26T10:21:20;8.60;82.30
29663;DHT22;16578;53.266;7.920;2024-02-26T10:23:47;8.60;82.30
29663;DHT22;16578;53.266;7.920;2024-02-26T10:26:13;8.60;83.10
29663;DHT22;16578;53.266;7.920;2024-02-26T10:28:41;8.70;82.30
29663;DHT22;16578;53.266;7.920;2024-02-26T10:31:07;8.70;82.30
29663;DHT22;16578;53.266;7.920;2024-02-26T10:33:34;8.80;82.10
29663;DHT22;16578;53.266;7.920;2024-02-26T10:36:04;8.80;81.90
29663;DHT22;16578;53.266;7.920;2024-02-26T10:38:31;8.80;81.90
29663;DHT22;16578;53.266;7.920;2024-02-26T10:40:57;8.80;81.90
29663;DHT22;16578;53.266;7.920;2024-02-26T10:43:24;8.90;81.80
29663;DHT22;16578;53.266;7.920;2024-02-26T10:45:50;8.90;81.70
29663;DHT22;16578;53.266;7.920;2024-02-26T10:48:16;8.90;81.60
29663;DHT22;16578;53.266;7.920;2024-02-26T10:50:43;9.00;82.50
29663;DHT22;16578;53.266;7.920;2024-02-26T10:53:21;9.00;81.30
29663;DHT22;16578;53.266;7.920;2024-02-26T10:56:14;9.00;81.20
29663;DHT22;16578;53.266;7.920;2024-02-26T10:58:43;9.00;80.90
29663;DHT22;16578;53.266;7.920;2024-02-26T11:01:15;9.00;81.20
29663;DHT22;16578;53.266;7.920;2024-02-26T11:03:42;9.10;81.30
29663;DHT22;16578;53.266;7.920;2024-02-26T11:06:08;9.10;81.20
29663;DHT22;16578;53.266;7.920;2024-02-26T11:08:34;9.10;81.10
29663;DHT22;16578;53.266;7.920;2024-02-26T11:11:01;9.10;81.10
29663;DHT22;16578;53.266;7.920;2024-02-26T11:13:30;9.10;81.00
29663;DHT22;16578;53.266;7.920;2024-02-26T11:15:56;9.10;80.90
29663;DHT22;16578;53.266;7.920;2024-02-26T11:18:23;9.20;81.10
29663;DHT22;16578;53.266;7.920;2024-02-26T11:20:51;9.20;81.10
29663;DHT22;16578;53.266;7.920;2024-02-26T11:23:20;9.20;80.80
29663;DHT22;16578;53.266;7.920;2024-02-26T11:25:46;9.20;80.80
29663;DHT22;16578;53.266;7.920;2024-02-26T11:28:14;9.30;80.90
29663;DHT22;16578;53.266;7.920;2024-02-26T11:30:43;9.30;80.90
29663;DHT22;16578;53.266;7.920;2024-02-26T11:33:10;9.30;80.90
29663;DHT22;16578;53.266;7.920;2024-02-26T11:35:38;9.30;80.80
29663;DHT22;16578;53.266;7.920;2024-02-26T11:38:03;9.30;80.60
29663;DHT22;16578;53.266;7.920;2024-02-26T11:40:31;9.30;80.50
29663;DHT22;16578;53.266;7.920;2024-02-26T11:42:58;9.30;80.40
29663;DHT22;16578;53.266;7.920;2024-02-26T11:48:11;9.40;80.20
29663;DHT22;16578;53.266;7.920;2024-02-26T11:50:42;9.40;80.20
29663;DHT22;16578;53.266;7.920;2024-02-26T11:53:28;9.40;80.40
29663;DHT22;16578;53.266;7.920;2024-02-26T11:56:13;9.40;80.40
29663;DHT22;16578;53.266;7.920;2024-02-26T11:58:40;9.40;80.40
29663;DHT22;16578;53.266;7.920;2024-02-26T12:01:35;9.40;80.40
29663;DHT22;16578;53.266;7.920;2024-02-26T12:03:54;9.40;80.40
29663;DHT22;16578;53.266;7.920;2024-02-26T12:06:20;9.40;80.40
29663;DHT22;16578;53.266;7.920;2024-02-26T12:08:46;9.40;80.40
29663;DHT22;16578;53.266;7.920;2024-02-26T12:11:15;9.40;80.30
29663;DHT22;16578;53.266;7.920;2024-02-26T12:13:41;9.40;80.20
29663;DHT22;16578;53.266;7.920;2024-02-26T12:16:07;9.30;80.10
29663;DHT22;16578;53.266;7.920;2024-02-26T12:18:34;9.30;80.20
29663;DHT22;16578;53.266;7.920;2024-02-26T12:21:01;9.30;80.20
29663;DHT22;16578;53.266;7.920;2024-02-26T12:23:27;9.30;80.10
29663;DHT22;16578;53.266;7.920;2024-02-26T12:25:54;9.20;80.10
29663;DHT22;16578;53.266;7.920;2024-02-26T12:28:19;9.20;80.20
29663;DHT22;16578;53.266;7.920;2024-02-26T12:30:45;9.20;80.10
29663;DHT22;16578;53.266;7.920;2024-02-26T12:33:11;9.10;80.10
29663;DHT22;16578;53.266;7.920;2024-02-26T12:35:37;9.10;80.30
29663;DHT22;16578;53.266;7.920;2024-02-26T12:38:03;9.10;81.20
29663;DHT22;16578;53.266;7.920;2024-02-26T12:40:29;9.10;80.40
29663;DHT22;16578;53.266;7.920;2024-02-26T12:42:55;9.10;80.50
29663;DHT22;16578;53.266;7.920;2024-02-26T12:45:21;9.10;80.70
29663;DHT22;16578;53.266;7.920;2024-02-26T12:47:46;9.10;80.50
29663;DHT22;16578;53.266;7.920;2024-02-26T12:50:13;9.10;80.50
29663;DHT22;16578;53.266;7.920;2024-02-26T12:52:40;9.00;80.50
29663;DHT22;16578;53.266;7.920;2024-02-26T12:55:06;9.10;80.80
29663;DHT22;16578;53.266;7.920;2024-02-26T12:57:39;9.10;80.80
29663;DHT22;16578;53.266;7.920;2024-02-26T13:00:06;9.10;80.80
29663;DHT22;16578;53.266;7.920;2024-02-26T13:02:37;9.10;80.90
29663;DHT22;16578;53.266;7.920;2024-02-26T13:05:05;9.10;80.80
29663;DHT22;16578;53.266;7.920;2024-02-26T13:07:31;9.10;80.80
29663;DHT22;16578;53.266;7.920;2024-02-26T13:09:57;9.10;80.80
29663;DHT22;16578;53.266;7.920;2024-02-26T13:12:22;9.20;81.00
29663;DHT22;16578;53.266;7.920;2024-02-26T13:14:58;9.20;81.00
29663;DHT22;16578;53.266;7.920;2024-02-26T13:17:24;9.20;80.90
29663;DHT22;16578;53.266;7.920;2024-02-26T13:19:53;9.20;81.00
29663;DHT22;16578;53.266;7.920;2024-02-26T13:22:21;9.30;81.10
29663;DHT22;16578;53.266;7.920;2024-02-26T13:24:56;9.30;80.90
29663;DHT22;16578;53.266;7.920;2024-02-26T13:27:25;9.30;80.80
29663;DHT22;16578;53.266;7.920;2024-02-26T13:32:38;9.30;80.50
29663;DHT22;16578;53.266;7.920;2024-02-26T13:35:11;9.30;80.50
29663;DHT22;16578;53.266;7.920;2024-02-26T13:37:38;9.30;80.50
29663;DHT22;16578;53.266;7.920;2024-02-26T13:40:09;9.30;80.50
29663;DHT22;16578;53.266;7.920;2024-02-26T13:42:35;9.30;80.50
29663;DHT22;16578;53.266;7.920;2024-02-26T13:45:01;9.30;80.50
29663;DHT22;16578;53.266;7.920;2024-02-26T13:47:27;9.20;80.50
29663;DHT22;16578;53.266;7.920;2024-02-26T13:49:52;9.20;80.60
29663;DHT22;16578;53.266;7.920;2024-02-26T13:52:18;9.20;80.70
29663;DHT22;16578;53.266;7.920;2024-02-26T13:54:45;9.20;80.80
29663;DHT22;16578;53.266;7.920;2024-02-26T13:57:11;9.20;80.70
29663;DHT22;16578;53.266;7.920;2024-02-26T13:59:37;9.20;80.70
29663;DHT22;16578;53.266;7.920;2024-02-26T14:02:05;9.20;80.70
29663;DHT22;16578;53.266;7.920;2024-02-26T14:04:31;9.20;80.70
29663;DHT22;16578;53.266;7.920;2024-02-26T14:06:57;9.30;80.70
29663;DHT22;16578;53.266;7.920;2024-02-26T14:09:22;9.20;80.60
29663;DHT22;16578;53.266;7.920;2024-02-26T14:11:48;9.30;80.90
29663;DHT22;16578;53.266;7.920;2024-02-26T14:14:14;9.30;80.90
29663;DHT22;16578;53.266;7.920;2024-02-26T14:16:40;9.30;80.90
29663;DHT22;16578;53.266;7.920;2024-02-26T14:19:06;9.30;80.70
29663;DHT22;16578;53.266;7.920;2024-02-26T14:21:31;9.30;80.60
29663;DHT22;16578;53.266;7.920;2024-02-26T14:23:57;9.30;80.50
29663;DHT22;16578;53.266;7.920;2024-02-26T14:26:23;9.30;80.50
29663;DHT22;16578;53.266;7.920;2024-02-26T14:28:49;9.30;80.50
29663;DHT22;16578;53.266;7.920;2024-02-26T14:31:17;9.20;80.40
29663;DHT22;16578;53.266;7.920;2024-02-26T14:33:43;9.20;80.40
29663;DHT22;16578;53.266;7.920;2024-02-26T14:36:09;9.10;80.50
29663;DHT22;16578;53.266;7.920;2024-02-26T14:38:35;9.10;80.60
29663;DHT22;16578;53.266;7.920;2024-02-26T14:41:01;9.10;80.60
29663;DHT22;16578;53.266;7.920;2024-02-26T14:43:28;9.20;80.70
29663;DHT22;16578;53.266;7.920;2024-02-26T14:45:53;9.10;80.60
29663;DHT22;16578;53.266;7.920;2024-02-26T14:48:19;9.10;80.70
29663;DHT22;16578;53.266;7.920;2024-02-26T14:50:44;9.10;80.80
29663;DHT22;16578;53.266;7.920;2024-02-26T14:53:10;9.10;80.80
29663;DHT22;16578;53.266;7.920;2024-02-26T14:55:36;9.10;80.80
29663;DHT22;16578;53.266;7.920;2024-02-26T14:58:02;9.10;80.90
29663;DHT22;16578;53.266;7.920;2024-02-26T15:00:27;9.10;80.90
29663;DHT22;16578;53.266;7.920;2024-02-26T15:02:53;9.10;80.90
29663;DHT22;16578;53.266;7.920;2024-02-26T15:05:20;9.20;81.10
29663;DHT22;16578;53.266;7.920;2024-02-26T15:07:46;9.20;81.10
29663;DHT22;16578;53.266;7.920;2024-02-26T15:10:12;9.20;81.10
29663;DHT22;16578;53.266;7.920;2024-02-26T15:12:37;9.20;81.00
29663;DHT22;16578;53.266;7.920;2024-02-26T15:15:04;9.20;80.90
29663;DHT22;16578;53.266;7.920;2024-02-26T15:17:29;9.20;80.80
29663;DHT22;16578;53.266;7.920;2024-02-26T15:19:57;9.20;80.70
29663;DHT22;16578;53.266;7.920;2024-02-26T15:22:24;9.10;80.60
29663;DHT22;16578;53.266;7.920;2024-02-26T15:24:50;9.10;80.60
29663;DHT22;16578;53.266;7.920;2024-02-26T15:27:15;9.10;80.60
29663;DHT22;16578;53.266;7.920;2024-02-26T15:29:42;9.10;80.70
29663;DHT22;16578;53.266;7.920;2024-02-26T15:32:07;9.10;80.70
29663;DHT22;16578;53.266;7.920;2024-02-26T15:34:33;9.10;80.70
29663;DHT22;16578;53.266;7.920;2024-02-26T15:36:59;9.10;80.70
29663;DHT22;16578;53.266;7.920;2024-02-26T15:39:24;9.10;80.80
29663;DHT22;16578;53.266;7.920;2024-02-26T15:41:50;9.10;80.80
29663;DHT22;16578;53.266;7.920;2024-02-26T15:44:16;9.10;80.80
29663;DHT22;16578;53.266;7.920;2024-02-26T15:46:42;9.10;80.80